You are not logged in, Click here to log in
西安咸陽國際機場 / ZLXY 中華人民共和國陕西省咸阳市
ICAO: ZLXY Country: 中華人民共和國陕西省咸阳市
Latitude: 34.4371 Longitude: 108.757
Total Arrivals: 16 Total Departures: 16
Latest Arrival: MU2263 (ZPPP-ZLXY)Arthur. Kung Latest Departure: CI561 (ZLXY-ZBAA)Arthur. Kung
Scenery:
METAR : ZLXY 240600Z 08005MPS CAVOK 16/04 Q1017 NOSIG

西安咸陽國際機場

You are accessing this site from IP address 34.201.9.19. Virtual Airline. CMS by phpVMS.Website designed by Zumeweb and edited by Theo Bearman.
There is 0 User(s) Online: | and 23 Guest(s) Online.
All information on this site is for fight simulation purposes only. This site is for flight logging for pilots of Virtual Airline&模擬飛行論壇 FlySim only.